Cohasset Beach, Washington
Current Conditions -  °F | °C
As of 2:31 AM on Monday 20 Oct 2014 (Local Time) from KHQM Reporting Station
Haze Haze  
Wind Chill: 57°   Ceiling: 900
Heat Index: 57°   Visibility: 4mi
Dew Point: 56°   Wind: 6mph
Humidity: 96%   Direction: 130°SE
Pressure: 29.7"   Gusts: NA
Location:  46.8679°N, 124.101°W
Report Text: KHQM 200931Z AUTO 13005KT 4SM BR BKN009 OVC013 14/13 A2970 RMK AO2 T01390133
Loading
Personal Weather Stations






























Interactive Weather Map
Tropical Storm Tracking
New forecast layout! Learn more

10-Day Weather Forecast

Advertisements
Track Severe Weather on mobile